sensor_id;sensor_type;location;lat;lon;timestamp;P1;durP1;ratioP1;P2;durP2;ratioP2
17253;SDS011;32542;52.832;13.816;2022-12-29T00:01:44;15.23;;;11.60;;
17253;SDS011;32542;52.832;13.816;2022-12-29T00:04:48;17.95;;;12.38;;
17253;SDS011;32542;52.832;13.816;2022-12-29T00:07:53;16.27;;;11.48;;
17253;SDS011;32542;52.832;13.816;2022-12-29T00:10:56;17.20;;;12.52;;
17253;SDS011;32542;52.832;13.816;2022-12-29T00:13:59;16.00;;;12.07;;
17253;SDS011;32542;52.832;13.816;2022-12-29T00:17:26;17.60;;;13.00;;
17253;SDS011;32542;52.832;13.816;2022-12-29T00:20:29;15.90;;;11.00;;
17253;SDS011;32542;52.832;13.816;2022-12-29T00:23:56;17.27;;;11.35;;
17253;SDS011;32542;52.832;13.816;2022-12-29T00:27:25;15.50;;;11.68;;
17253;SDS011;32542;52.832;13.816;2022-12-29T00:30:46;17.38;;;12.63;;
17253;SDS011;32542;52.832;13.816;2022-12-29T00:34:08;16.05;;;11.98;;
17253;SDS011;32542;52.832;13.816;2022-12-29T00:37:30;17.48;;;12.23;;
17253;SDS011;32542;52.832;13.816;2022-12-29T00:40:49;16.33;;;11.40;;
17253;SDS011;32542;52.832;13.816;2022-12-29T00:44:10;17.02;;;12.25;;
17253;SDS011;32542;52.832;13.816;2022-12-29T00:47:15;16.60;;;12.00;;
17253;SDS011;32542;52.832;13.816;2022-12-29T00:50:18;16.17;;;11.57;;
17253;SDS011;32542;52.832;13.816;2022-12-29T00:53:20;16.42;;;11.50;;
17253;SDS011;32542;52.832;13.816;2022-12-29T00:56:25;17.77;;;13.18;;
17253;SDS011;32542;52.832;13.816;2022-12-29T00:59:27;17.02;;;12.20;;
17253;SDS011;32542;52.832;13.816;2022-12-29T01:02:31;17.70;;;12.65;;
17253;SDS011;32542;52.832;13.816;2022-12-29T01:05:35;16.60;;;11.98;;
17253;SDS011;32542;52.832;13.816;2022-12-29T01:08:40;16.08;;;11.88;;
17253;SDS011;32542;52.832;13.816;2022-12-29T01:11:44;15.82;;;11.65;;
17253;SDS011;32542;52.832;13.816;2022-12-29T01:14:46;15.95;;;11.65;;
17253;SDS011;32542;52.832;13.816;2022-12-29T01:17:49;16.98;;;12.18;;
17253;SDS011;32542;52.832;13.816;2022-12-29T01:20:57;15.45;;;11.45;;
17253;SDS011;32542;52.832;13.816;2022-12-29T01:24:01;16.05;;;11.98;;
17253;SDS011;32542;52.832;13.816;2022-12-29T01:27:06;16.35;;;12.50;;
17253;SDS011;32542;52.832;13.816;2022-12-29T01:30:09;16.20;;;11.98;;
17253;SDS011;32542;52.832;13.816;2022-12-29T01:33:12;18.17;;;12.52;;
17253;SDS011;32542;52.832;13.816;2022-12-29T01:36:15;17.10;;;12.57;;
17253;SDS011;32542;52.832;13.816;2022-12-29T01:39:20;17.20;;;11.82;;
17253;SDS011;32542;52.832;13.816;2022-12-29T01:42:24;17.88;;;12.52;;
17253;SDS011;32542;52.832;13.816;2022-12-29T01:45:28;16.50;;;11.73;;
17253;SDS011;32542;52.832;13.816;2022-12-29T01:48:31;16.73;;;11.75;;
17253;SDS011;32542;52.832;13.816;2022-12-29T01:51:35;15.98;;;11.40;;
17253;SDS011;32542;52.832;13.816;2022-12-29T01:54:41;14.75;;;10.82;;
17253;SDS011;32542;52.832;13.816;2022-12-29T01:57:51;14.57;;;11.20;;
17253;SDS011;32542;52.832;13.816;2022-12-29T02:00:55;14.88;;;10.80;;
17253;SDS011;32542;52.832;13.816;2022-12-29T02:03:58;15.48;;;10.98;;
17253;SDS011;32542;52.832;13.816;2022-12-29T02:07:02;16.90;;;12.38;;
17253;SDS011;32542;52.832;13.816;2022-12-29T02:10:08;15.13;;;10.95;;
17253;SDS011;32542;52.832;13.816;2022-12-29T02:13:14;15.52;;;11.90;;
17253;SDS011;32542;52.832;13.816;2022-12-29T02:16:26;15.98;;;11.07;;
17253;SDS011;32542;52.832;13.816;2022-12-29T02:19:49;16.20;;;11.55;;
17253;SDS011;32542;52.832;13.816;2022-12-29T02:23:17;15.80;;;11.45;;
17253;SDS011;32542;52.832;13.816;2022-12-29T02:26:41;16.02;;;11.57;;
17253;SDS011;32542;52.832;13.816;2022-12-29T02:30:03;14.90;;;10.60;;
17253;SDS011;32542;52.832;13.816;2022-12-29T02:33:17;15.77;;;10.93;;
17253;SDS011;32542;52.832;13.816;2022-12-29T02:36:28;15.00;;;10.70;;
17253;SDS011;32542;52.832;13.816;2022-12-29T02:39:40;15.45;;;10.50;;
17253;SDS011;32542;52.832;13.816;2022-12-29T02:42:53;15.73;;;11.35;;
17253;SDS011;32542;52.832;13.816;2022-12-29T02:46:03;14.07;;;10.48;;
17253;SDS011;32542;52.832;13.816;2022-12-29T02:49:15;15.55;;;10.95;;
17253;SDS011;32542;52.832;13.816;2022-12-29T02:52:22;14.02;;;11.10;;
17253;SDS011;32542;52.832;13.816;2022-12-29T02:55:30;16.52;;;11.18;;
17253;SDS011;32542;52.832;13.816;2022-12-29T02:58:32;14.02;;;10.57;;
17253;SDS011;32542;52.832;13.816;2022-12-29T03:01:39;15.80;;;11.80;;
17253;SDS011;32542;52.832;13.816;2022-12-29T03:05:25;15.38;;;10.77;;
17253;SDS011;32542;52.832;13.816;2022-12-29T03:08:42;15.02;;;11.13;;
17253;SDS011;32542;52.832;13.816;2022-12-29T03:11:52;15.65;;;10.93;;
17253;SDS011;32542;52.832;13.816;2022-12-29T03:15:15;14.32;;;10.68;;
17253;SDS011;32542;52.832;13.816;2022-12-29T03:18:45;15.60;;;11.25;;
17253;SDS011;32542;52.832;13.816;2022-12-29T03:21:55;14.00;;;10.50;;
17253;SDS011;32542;52.832;13.816;2022-12-29T03:25:28;14.82;;;10.63;;
17253;SDS011;32542;52.832;13.816;2022-12-29T03:28:35;16.38;;;11.48;;
17253;SDS011;32542;52.832;13.816;2022-12-29T03:31:42;13.30;;;9.88;;
17253;SDS011;32542;52.832;13.816;2022-12-29T03:34:47;14.02;;;10.55;;
17253;SDS011;32542;52.832;13.816;2022-12-29T03:37:55;14.18;;;10.60;;
17253;SDS011;32542;52.832;13.816;2022-12-29T03:41:03;14.45;;;10.45;;
17253;SDS011;32542;52.832;13.816;2022-12-29T03:44:10;14.30;;;10.63;;
17253;SDS011;32542;52.832;13.816;2022-12-29T03:47:14;13.15;;;9.82;;
17253;SDS011;32542;52.832;13.816;2022-12-29T03:50:19;13.65;;;10.10;;
17253;SDS011;32542;52.832;13.816;2022-12-29T03:53:24;14.07;;;10.57;;
17253;SDS011;32542;52.832;13.816;2022-12-29T03:56:27;13.88;;;9.77;;
17253;SDS011;32542;52.832;13.816;2022-12-29T03:59:30;14.02;;;10.32;;
17253;SDS011;32542;52.832;13.816;2022-12-29T04:02:33;15.13;;;10.57;;
17253;SDS011;32542;52.832;13.816;2022-12-29T04:05:36;14.73;;;10.93;;
17253;SDS011;32542;52.832;13.816;2022-12-29T04:08:40;11.90;;;9.35;;
17253;SDS011;32542;52.832;13.816;2022-12-29T04:11:43;13.55;;;9.80;;
17253;SDS011;32542;52.832;13.816;2022-12-29T04:14:47;13.80;;;10.57;;
17253;SDS011;32542;52.832;13.816;2022-12-29T04:17:52;13.55;;;10.30;;
17253;SDS011;32542;52.832;13.816;2022-12-29T04:20:55;13.48;;;9.95;;
17253;SDS011;32542;52.832;13.816;2022-12-29T04:24:08;13.02;;;9.85;;
17253;SDS011;32542;52.832;13.816;2022-12-29T04:27:15;13.63;;;10.18;;
17253;SDS011;32542;52.832;13.816;2022-12-29T04:30:42;13.68;;;10.18;;
17253;SDS011;32542;52.832;13.816;2022-12-29T04:34:02;13.35;;;10.48;;
17253;SDS011;32542;52.832;13.816;2022-12-29T04:37:05;14.77;;;9.85;;
17253;SDS011;32542;52.832;13.816;2022-12-29T04:40:10;14.15;;;10.18;;
17253;SDS011;32542;52.832;13.816;2022-12-29T04:43:14;12.93;;;9.98;;
17253;SDS011;32542;52.832;13.816;2022-12-29T04:46:38;13.05;;;10.02;;
17253;SDS011;32542;52.832;13.816;2022-12-29T04:49:44;13.40;;;9.73;;
17253;SDS011;32542;52.832;13.816;2022-12-29T04:53:06;13.40;;;9.88;;
17253;SDS011;32542;52.832;13.816;2022-12-29T04:56:11;13.63;;;9.65;;
17253;SDS011;32542;52.832;13.816;2022-12-29T04:59:14;11.93;;;9.32;;
17253;SDS011;32542;52.832;13.816;2022-12-29T05:02:20;13.07;;;9.55;;
17253;SDS011;32542;52.832;13.816;2022-12-29T05:05:25;12.05;;;8.82;;
17253;SDS011;32542;52.832;13.816;2022-12-29T05:08:28;12.85;;;9.40;;
17253;SDS011;32542;52.832;13.816;2022-12-29T05:11:34;13.30;;;9.57;;
17253;SDS011;32542;52.832;13.816;2022-12-29T05:14:37;13.57;;;9.82;;
17253;SDS011;32542;52.832;13.816;2022-12-29T05:17:41;13.63;;;9.45;;
17253;SDS011;32542;52.832;13.816;2022-12-29T05:20:44;13.35;;;10.15;;
17253;SDS011;32542;52.832;13.816;2022-12-29T05:23:48;13.77;;;10.05;;
17253;SDS011;32542;52.832;13.816;2022-12-29T05:26:52;13.27;;;9.60;;
17253;SDS011;32542;52.832;13.816;2022-12-29T05:30:18;12.45;;;8.95;;
17253;SDS011;32542;52.832;13.816;2022-12-29T05:33:21;12.00;;;9.63;;
17253;SDS011;32542;52.832;13.816;2022-12-29T05:36:25;12.27;;;8.52;;
17253;SDS011;32542;52.832;13.816;2022-12-29T05:39:36;14.18;;;9.90;;
17253;SDS011;32542;52.832;13.816;2022-12-29T05:42:42;12.45;;;9.05;;
17253;SDS011;32542;52.832;13.816;2022-12-29T05:46:07;12.45;;;9.90;;
17253;SDS011;32542;52.832;13.816;2022-12-29T05:49:20;12.90;;;9.60;;
17253;SDS011;32542;52.832;13.816;2022-12-29T05:52:29;12.15;;;9.25;;
17253;SDS011;32542;52.832;13.816;2022-12-29T05:55:32;12.45;;;9.50;;
17253;SDS011;32542;52.832;13.816;2022-12-29T05:58:37;12.23;;;9.10;;
17253;SDS011;32542;52.832;13.816;2022-12-29T06:01:40;11.50;;;8.77;;
17253;SDS011;32542;52.832;13.816;2022-12-29T06:04:45;11.38;;;8.82;;
17253;SDS011;32542;52.832;13.816;2022-12-29T06:07:48;13.00;;;9.27;;
17253;SDS011;32542;52.832;13.816;2022-12-29T06:10:51;13.07;;;9.48;;
17253;SDS011;32542;52.832;13.816;2022-12-29T06:13:55;11.90;;;8.73;;
17253;SDS011;32542;52.832;13.816;2022-12-29T06:16:58;11.38;;;8.85;;
17253;SDS011;32542;52.832;13.816;2022-12-29T06:20:02;11.40;;;8.88;;
17253;SDS011;32542;52.832;13.816;2022-12-29T06:23:05;9.63;;;7.85;;
17253;SDS011;32542;52.832;13.816;2022-12-29T06:26:08;12.00;;;8.45;;
17253;SDS011;32542;52.832;13.816;2022-12-29T06:29:13;11.88;;;8.73;;
17253;SDS011;32542;52.832;13.816;2022-12-29T06:32:18;11.20;;;8.63;;
17253;SDS011;32542;52.832;13.816;2022-12-29T06:35:25;11.57;;;8.57;;
17253;SDS011;32542;52.832;13.816;2022-12-29T06:38:28;12.43;;;9.38;;
17253;SDS011;32542;52.832;13.816;2022-12-29T06:41:32;10.30;;;8.35;;
17253;SDS011;32542;52.832;13.816;2022-12-29T06:44:58;12.00;;;9.00;;
17253;SDS011;32542;52.832;13.816;2022-12-29T06:48:02;11.98;;;9.13;;
17253;SDS011;32542;52.832;13.816;2022-12-29T06:51:05;11.85;;;9.30;;
17253;SDS011;32542;52.832;13.816;2022-12-29T06:54:08;12.35;;;8.60;;
17253;SDS011;32542;52.832;13.816;2022-12-29T06:57:11;11.32;;;8.75;;
17253;SDS011;32542;52.832;13.816;2022-12-29T07:00:16;11.95;;;8.73;;
17253;SDS011;32542;52.832;13.816;2022-12-29T07:03:25;11.80;;;8.70;;
17253;SDS011;32542;52.832;13.816;2022-12-29T07:06:28;11.82;;;8.88;;
17253;SDS011;32542;52.832;13.816;2022-12-29T07:09:31;12.20;;;9.27;;
17253;SDS011;32542;52.832;13.816;2022-12-29T07:12:34;11.35;;;8.68;;
17253;SDS011;32542;52.832;13.816;2022-12-29T07:15:38;12.10;;;8.45;;
17253;SDS011;32542;52.832;13.816;2022-12-29T07:18:41;11.27;;;8.35;;
17253;SDS011;32542;52.832;13.816;2022-12-29T07:21:44;11.70;;;7.97;;
17253;SDS011;32542;52.832;13.816;2022-12-29T07:24:47;10.95;;;8.02;;
17253;SDS011;32542;52.832;13.816;2022-12-29T07:27:50;11.10;;;8.35;;
17253;SDS011;32542;52.832;13.816;2022-12-29T07:30:54;12.15;;;8.73;;
17253;SDS011;32542;52.832;13.816;2022-12-29T07:33:57;11.02;;;8.20;;
17253;SDS011;32542;52.832;13.816;2022-12-29T07:37:00;10.25;;;7.75;;
17253;SDS011;32542;52.832;13.816;2022-12-29T07:40:03;10.95;;;8.05;;
17253;SDS011;32542;52.832;13.816;2022-12-29T07:43:06;11.88;;;8.25;;
17253;SDS011;32542;52.832;13.816;2022-12-29T07:46:18;10.90;;;8.35;;
17253;SDS011;32542;52.832;13.816;2022-12-29T07:49:41;9.88;;;7.40;;
17253;SDS011;32542;52.832;13.816;2022-12-29T07:52:44;10.85;;;8.13;;
17253;SDS011;32542;52.832;13.816;2022-12-29T07:55:49;10.95;;;8.52;;
17253;SDS011;32542;52.832;13.816;2022-12-29T07:58:52;10.05;;;7.97;;
17253;SDS011;32542;52.832;13.816;2022-12-29T08:01:56;10.13;;;7.95;;
17253;SDS011;32542;52.832;13.816;2022-12-29T08:04:59;10.80;;;7.65;;
17253;SDS011;32542;52.832;13.816;2022-12-29T08:08:02;10.52;;;8.15;;
17253;SDS011;32542;52.832;13.816;2022-12-29T08:11:05;10.75;;;8.10;;
17253;SDS011;32542;52.832;13.816;2022-12-29T08:14:08;10.43;;;7.93;;
17253;SDS011;32542;52.832;13.816;2022-12-29T08:17:12;10.07;;;7.45;;
17253;SDS011;32542;52.832;13.816;2022-12-29T08:20:15;9.38;;;7.43;;
17253;SDS011;32542;52.832;13.816;2022-12-29T08:23:18;10.93;;;7.90;;
17253;SDS011;32542;52.832;13.816;2022-12-29T08:26:21;10.07;;;7.65;;
17253;SDS011;32542;52.832;13.816;2022-12-29T08:29:24;10.07;;;8.25;;
17253;SDS011;32542;52.832;13.816;2022-12-29T08:32:28;9.10;;;7.60;;
17253;SDS011;32542;52.832;13.816;2022-12-29T08:35:32;10.07;;;7.53;;
17253;SDS011;32542;52.832;13.816;2022-12-29T08:38:35;10.32;;;7.78;;
17253;SDS011;32542;52.832;13.816;2022-12-29T08:41:38;9.93;;;7.47;;
17253;SDS011;32542;52.832;13.816;2022-12-29T08:44:41;9.65;;;7.25;;
17253;SDS011;32542;52.832;13.816;2022-12-29T08:47:45;8.75;;;7.07;;
17253;SDS011;32542;52.832;13.816;2022-12-29T08:50:48;9.75;;;7.45;;
17253;SDS011;32542;52.832;13.816;2022-12-29T08:53:52;8.93;;;7.18;;
17253;SDS011;32542;52.832;13.816;2022-12-29T08:56:55;9.10;;;6.97;;
17253;SDS011;32542;52.832;13.816;2022-12-29T09:00:09;10.73;;;7.32;;
17253;SDS011;32542;52.832;13.816;2022-12-29T09:03:14;9.23;;;6.90;;
17253;SDS011;32542;52.832;13.816;2022-12-29T09:06:37;10.02;;;7.45;;
17253;SDS011;32542;52.832;13.816;2022-12-29T09:09:41;10.40;;;7.65;;
17253;SDS011;32542;52.832;13.816;2022-12-29T09:12:44;9.43;;;6.95;;
17253;SDS011;32542;52.832;13.816;2022-12-29T09:15:57;9.90;;;7.15;;
17253;SDS011;32542;52.832;13.816;2022-12-29T09:19:02;8.90;;;6.90;;
17253;SDS011;32542;52.832;13.816;2022-12-29T09:22:05;9.43;;;6.65;;
17253;SDS011;32542;52.832;13.816;2022-12-29T09:25:08;9.27;;;6.90;;
17253;SDS011;32542;52.832;13.816;2022-12-29T09:28:11;8.63;;;6.78;;
17253;SDS011;32542;52.832;13.816;2022-12-29T09:31:14;8.57;;;7.00;;
17253;SDS011;32542;52.832;13.816;2022-12-29T09:34:19;8.80;;;6.88;;
17253;SDS011;32542;52.832;13.816;2022-12-29T09:37:21;8.63;;;6.75;;
17253;SDS011;32542;52.832;13.816;2022-12-29T09:40:26;8.25;;;6.53;;
17253;SDS011;32542;52.832;13.816;2022-12-29T09:43:43;8.48;;;6.75;;
17253;SDS011;32542;52.832;13.816;2022-12-29T09:46:54;10.20;;;7.22;;
17253;SDS011;32542;52.832;13.816;2022-12-29T09:50:02;9.23;;;7.03;;
17253;SDS011;32542;52.832;13.816;2022-12-29T09:53:09;9.85;;;7.40;;
17253;SDS011;32542;52.832;13.816;2022-12-29T09:56:18;8.93;;;6.75;;
17253;SDS011;32542;52.832;13.816;2022-12-29T09:59:25;8.75;;;6.50;;
17253;SDS011;32542;52.832;13.816;2022-12-29T10:02:38;8.50;;;6.30;;
17253;SDS011;32542;52.832;13.816;2022-12-29T10:05:47;7.85;;;6.53;;
17253;SDS011;32542;52.832;13.816;2022-12-29T10:08:55;8.85;;;6.60;;
17253;SDS011;32542;52.832;13.816;2022-12-29T10:12:07;8.32;;;6.28;;
17253;SDS011;32542;52.832;13.816;2022-12-29T10:15:31;8.65;;;6.90;;
17253;SDS011;32542;52.832;13.816;2022-12-29T10:18:48;8.05;;;5.93;;
17253;SDS011;32542;52.832;13.816;2022-12-29T10:22:12;7.63;;;5.93;;
17253;SDS011;32542;52.832;13.816;2022-12-29T10:25:29;7.88;;;6.25;;
17253;SDS011;32542;52.832;13.816;2022-12-29T10:28:38;8.93;;;6.70;;
17253;SDS011;32542;52.832;13.816;2022-12-29T10:31:45;7.53;;;6.28;;
17253;SDS011;32542;52.832;13.816;2022-12-29T10:34:53;8.25;;;5.93;;
17253;SDS011;32542;52.832;13.816;2022-12-29T10:38:01;7.88;;;6.00;;
17253;SDS011;32542;52.832;13.816;2022-12-29T10:41:13;9.02;;;6.63;;
17253;SDS011;32542;52.832;13.816;2022-12-29T10:44:21;7.65;;;5.80;;
17253;SDS011;32542;52.832;13.816;2022-12-29T10:47:28;7.53;;;6.13;;
17253;SDS011;32542;52.832;13.816;2022-12-29T10:50:35;7.65;;;5.80;;
17253;SDS011;32542;52.832;13.816;2022-12-29T10:53:46;7.90;;;6.05;;
17253;SDS011;32542;52.832;13.816;2022-12-29T10:56:53;7.65;;;6.07;;
17253;SDS011;32542;52.832;13.816;2022-12-29T10:59:59;8.35;;;6.30;;
17253;SDS011;32542;52.832;13.816;2022-12-29T11:03:16;8.98;;;6.65;;
17253;SDS011;32542;52.832;13.816;2022-12-29T11:06:38;7.65;;;6.15;;
17253;SDS011;32542;52.832;13.816;2022-12-29T11:09:42;8.15;;;6.20;;
17253;SDS011;32542;52.832;13.816;2022-12-29T11:12:56;8.55;;;6.15;;
17253;SDS011;32542;52.832;13.816;2022-12-29T11:16:01;6.78;;;5.63;;
17253;SDS011;32542;52.832;13.816;2022-12-29T11:19:04;7.15;;;5.47;;
17253;SDS011;32542;52.832;13.816;2022-12-29T11:22:12;6.68;;;5.57;;
17253;SDS011;32542;52.832;13.816;2022-12-29T11:25:23;7.38;;;5.50;;
17253;SDS011;32542;52.832;13.816;2022-12-29T11:28:26;7.63;;;5.95;;
17253;SDS011;32542;52.832;13.816;2022-12-29T11:31:33;7.10;;;5.57;;
17253;SDS011;32542;52.832;13.816;2022-12-29T11:34:43;6.82;;;5.40;;
17253;SDS011;32542;52.832;13.816;2022-12-29T11:37:46;7.15;;;5.55;;
17253;SDS011;32542;52.832;13.816;2022-12-29T11:41:00;7.45;;;5.63;;
17253;SDS011;32542;52.832;13.816;2022-12-29T11:44:04;6.00;;;4.97;;
17253;SDS011;32542;52.832;13.816;2022-12-29T11:47:08;7.20;;;5.82;;
17253;SDS011;32542;52.832;13.816;2022-12-29T11:50:16;7.43;;;5.57;;
17253;SDS011;32542;52.832;13.816;2022-12-29T11:53:23;7.07;;;5.50;;
17253;SDS011;32542;52.832;13.816;2022-12-29T11:56:34;6.15;;;5.38;;
17253;SDS011;32542;52.832;13.816;2022-12-29T11:59:42;7.05;;;5.50;;
17253;SDS011;32542;52.832;13.816;2022-12-29T12:02:48;6.80;;;5.28;;
17253;SDS011;32542;52.832;13.816;2022-12-29T12:05:56;6.07;;;4.90;;
17253;SDS011;32542;52.832;13.816;2022-12-29T12:09:04;5.95;;;4.97;;
17253;SDS011;32542;52.832;13.816;2022-12-29T12:12:18;6.25;;;5.20;;
17253;SDS011;32542;52.832;13.816;2022-12-29T12:15:27;5.80;;;4.90;;
17253;SDS011;32542;52.832;13.816;2022-12-29T12:18:37;6.40;;;5.03;;
17253;SDS011;32542;52.832;13.816;2022-12-29T12:21:45;7.55;;;5.13;;
17253;SDS011;32542;52.832;13.816;2022-12-29T12:24:53;6.57;;;5.07;;
17253;SDS011;32542;52.832;13.816;2022-12-29T12:28:02;6.22;;;5.38;;
17253;SDS011;32542;52.832;13.816;2022-12-29T12:31:16;6.53;;;5.10;;
17253;SDS011;32542;52.832;13.816;2022-12-29T12:34:25;6.50;;;4.93;;
17253;SDS011;32542;52.832;13.816;2022-12-29T12:37:45;6.20;;;4.88;;
17253;SDS011;32542;52.832;13.816;2022-12-29T12:41:07;6.75;;;5.13;;
17253;SDS011;32542;52.832;13.816;2022-12-29T12:44:23;7.15;;;4.85;;
17253;SDS011;32542;52.832;13.816;2022-12-29T12:47:39;5.90;;;4.85;;
17253;SDS011;32542;52.832;13.816;2022-12-29T12:50:52;6.57;;;5.05;;
17253;SDS011;32542;52.832;13.816;2022-12-29T12:54:05;6.88;;;5.63;;
17253;SDS011;32542;52.832;13.816;2022-12-29T12:57:24;6.50;;;4.95;;
17253;SDS011;32542;52.832;13.816;2022-12-29T13:00:39;6.53;;;5.05;;
17253;SDS011;32542;52.832;13.816;2022-12-29T13:03:52;6.32;;;4.63;;
17253;SDS011;32542;52.832;13.816;2022-12-29T13:07:18;6.97;;;5.30;;
17253;SDS011;32542;52.832;13.816;2022-12-29T13:10:31;4.88;;;4.38;;
17253;SDS011;32542;52.832;13.816;2022-12-29T13:13:46;6.35;;;4.80;;
17253;SDS011;32542;52.832;13.816;2022-12-29T13:17:01;6.28;;;4.75;;
17253;SDS011;32542;52.832;13.816;2022-12-29T13:20:14;5.80;;;4.68;;
17253;SDS011;32542;52.832;13.816;2022-12-29T13:23:24;7.53;;;5.40;;
17253;SDS011;32542;52.832;13.816;2022-12-29T13:26:35;5.75;;;4.82;;
17253;SDS011;32542;52.832;13.816;2022-12-29T13:29:47;6.82;;;4.95;;
17253;SDS011;32542;52.832;13.816;2022-12-29T13:33:01;6.25;;;4.90;;
17253;SDS011;32542;52.832;13.816;2022-12-29T13:36:09;5.97;;;4.88;;
17253;SDS011;32542;52.832;13.816;2022-12-29T13:39:21;5.97;;;4.43;;
17253;SDS011;32542;52.832;13.816;2022-12-29T13:42:29;6.00;;;4.50;;
17253;SDS011;32542;52.832;13.816;2022-12-29T13:45:33;6.90;;;4.43;;
17253;SDS011;32542;52.832;13.816;2022-12-29T13:48:39;6.10;;;5.13;;
17253;SDS011;32542;52.832;13.816;2022-12-29T13:51:48;5.75;;;4.60;;
17253;SDS011;32542;52.832;13.816;2022-12-29T13:54:55;5.03;;;4.13;;
17253;SDS011;32542;52.832;13.816;2022-12-29T13:58:05;5.72;;;4.63;;
17253;SDS011;32542;52.832;13.816;2022-12-29T14:01:16;4.90;;;4.10;;
17253;SDS011;32542;52.832;13.816;2022-12-29T14:04:27;4.85;;;4.05;;
17253;SDS011;32542;52.832;13.816;2022-12-29T14:07:36;5.47;;;4.20;;
17253;SDS011;32542;52.832;13.816;2022-12-29T14:10:45;6.50;;;4.43;;
17253;SDS011;32542;52.832;13.816;2022-12-29T14:13:49;5.32;;;4.32;;
17253;SDS011;32542;52.832;13.816;2022-12-29T14:16:53;5.72;;;4.40;;
17253;SDS011;32542;52.832;13.816;2022-12-29T14:19:58;4.80;;;4.07;;
17253;SDS011;32542;52.832;13.816;2022-12-29T14:23:14;5.65;;;4.50;;
17253;SDS011;32542;52.832;13.816;2022-12-29T14:26:33;5.03;;;4.03;;
17253;SDS011;32542;52.832;13.816;2022-12-29T14:29:44;5.28;;;4.22;;
17253;SDS011;32542;52.832;13.816;2022-12-29T14:33:03;5.47;;;4.47;;
17253;SDS011;32542;52.832;13.816;2022-12-29T14:36:23;4.78;;;4.28;;
17253;SDS011;32542;52.832;13.816;2022-12-29T14:39:36;5.68;;;4.50;;
17253;SDS011;32542;52.832;13.816;2022-12-29T14:42:40;5.25;;;4.03;;
17253;SDS011;32542;52.832;13.816;2022-12-29T14:45:47;5.18;;;4.07;;
17253;SDS011;32542;52.832;13.816;2022-12-29T14:48:56;4.85;;;4.20;;
17253;SDS011;32542;52.832;13.816;2022-12-29T14:52:12;5.60;;;4.35;;
17253;SDS011;32542;52.832;13.816;2022-12-29T14:58:43;5.22;;;4.13;;
17253;SDS011;32542;52.832;13.816;2022-12-29T15:01:51;4.45;;;3.55;;
17253;SDS011;32542;52.832;13.816;2022-12-29T15:04:58;4.88;;;3.78;;
17253;SDS011;32542;52.832;13.816;2022-12-29T15:08:04;4.95;;;4.18;;
17253;SDS011;32542;52.832;13.816;2022-12-29T15:11:09;4.85;;;3.72;;
17253;SDS011;32542;52.832;13.816;2022-12-29T15:14:30;6.68;;;4.20;;
17253;SDS011;32542;52.832;13.816;2022-12-29T15:17:35;4.82;;;3.78;;
17253;SDS011;32542;52.832;13.816;2022-12-29T15:20:39;4.85;;;3.92;;
17253;SDS011;32542;52.832;13.816;2022-12-29T15:23:46;4.72;;;3.88;;
17253;SDS011;32542;52.832;13.816;2022-12-29T15:26:50;4.40;;;3.67;;
17253;SDS011;32542;52.832;13.816;2022-12-29T15:29:56;4.38;;;3.60;;
17253;SDS011;32542;52.832;13.816;2022-12-29T15:32:59;4.35;;;3.78;;
17253;SDS011;32542;52.832;13.816;2022-12-29T15:36:09;4.30;;;3.83;;
17253;SDS011;32542;52.832;13.816;2022-12-29T15:39:25;4.18;;;3.53;;
17253;SDS011;32542;52.832;13.816;2022-12-29T15:42:41;4.72;;;4.00;;
17253;SDS011;32542;52.832;13.816;2022-12-29T15:45:54;4.88;;;3.90;;
17253;SDS011;32542;52.832;13.816;2022-12-29T15:48:58;4.93;;;3.90;;
17253;SDS011;32542;52.832;13.816;2022-12-29T15:52:02;4.20;;;3.65;;
17253;SDS011;32542;52.832;13.816;2022-12-29T15:55:16;4.15;;;3.60;;
17253;SDS011;32542;52.832;13.816;2022-12-29T15:58:23;4.40;;;3.55;;
17253;SDS011;32542;52.832;13.816;2022-12-29T16:01:28;4.55;;;3.80;;
17253;SDS011;32542;52.832;13.816;2022-12-29T16:04:33;4.63;;;3.80;;
17253;SDS011;32542;52.832;13.816;2022-12-29T16:07:58;4.82;;;4.13;;
17253;SDS011;32542;52.832;13.816;2022-12-29T16:11:04;4.57;;;3.63;;
17253;SDS011;32542;52.832;13.816;2022-12-29T16:14:19;5.40;;;3.95;;
17253;SDS011;32542;52.832;13.816;2022-12-29T16:17:27;4.45;;;3.92;;
17253;SDS011;32542;52.832;13.816;2022-12-29T16:20:34;5.55;;;4.15;;
17253;SDS011;32542;52.832;13.816;2022-12-29T16:23:43;5.05;;;3.92;;
17253;SDS011;32542;52.832;13.816;2022-12-29T16:26:54;4.72;;;4.00;;
17253;SDS011;32542;52.832;13.816;2022-12-29T16:30:03;4.40;;;3.60;;
17253;SDS011;32542;52.832;13.816;2022-12-29T16:36:40;4.70;;;3.50;;
17253;SDS011;32542;52.832;13.816;2022-12-29T16:39:54;4.88;;;4.18;;
17253;SDS011;32542;52.832;13.816;2022-12-29T16:42:59;5.43;;;4.03;;
17253;SDS011;32542;52.832;13.816;2022-12-29T16:46:16;4.55;;;3.78;;
17253;SDS011;32542;52.832;13.816;2022-12-29T16:49:23;4.40;;;3.78;;
17253;SDS011;32542;52.832;13.816;2022-12-29T16:52:29;4.68;;;3.67;;
17253;SDS011;32542;52.832;13.816;2022-12-29T16:55:36;4.07;;;3.50;;
17253;SDS011;32542;52.832;13.816;2022-12-29T16:58:40;4.50;;;3.60;;
17253;SDS011;32542;52.832;13.816;2022-12-29T17:01:49;4.60;;;3.85;;
17253;SDS011;32542;52.832;13.816;2022-12-29T17:04:52;4.47;;;3.42;;
17253;SDS011;32542;52.832;13.816;2022-12-29T17:07:55;4.72;;;4.05;;
17253;SDS011;32542;52.832;13.816;2022-12-29T17:11:02;3.83;;;3.42;;
17253;SDS011;32542;52.832;13.816;2022-12-29T17:17:45;4.28;;;3.60;;
17253;SDS011;32542;52.832;13.816;2022-12-29T17:20:49;4.30;;;3.60;;
17253;SDS011;32542;52.832;13.816;2022-12-29T17:23:52;4.82;;;3.72;;
17253;SDS011;32542;52.832;13.816;2022-12-29T17:26:55;3.90;;;3.50;;
17253;SDS011;32542;52.832;13.816;2022-12-29T17:30:03;4.43;;;3.60;;
17253;SDS011;32542;52.832;13.816;2022-12-29T17:33:09;4.70;;;3.70;;
17253;SDS011;32542;52.832;13.816;2022-12-29T17:36:16;3.65;;;3.25;;
17253;SDS011;32542;52.832;13.816;2022-12-29T17:39:19;5.78;;;4.07;;
17253;SDS011;32542;52.832;13.816;2022-12-29T17:42:22;5.20;;;3.92;;
17253;SDS011;32542;52.832;13.816;2022-12-29T17:45:27;4.18;;;3.47;;
17253;SDS011;32542;52.832;13.816;2022-12-29T17:48:31;5.07;;;3.58;;
17253;SDS011;32542;52.832;13.816;2022-12-29T17:51:34;4.07;;;3.42;;
17253;SDS011;32542;52.832;13.816;2022-12-29T17:54:37;4.05;;;3.28;;
17253;SDS011;32542;52.832;13.816;2022-12-29T17:57:46;4.55;;;3.83;;
17253;SDS011;32542;52.832;13.816;2022-12-29T18:00:51;4.45;;;3.58;;
17253;SDS011;32542;52.832;13.816;2022-12-29T18:03:57;3.85;;;3.08;;
17253;SDS011;32542;52.832;13.816;2022-12-29T18:06:59;4.25;;;3.30;;
17253;SDS011;32542;52.832;13.816;2022-12-29T18:10:04;4.53;;;3.58;;
17253;SDS011;32542;52.832;13.816;2022-12-29T18:13:08;4.28;;;3.60;;
17253;SDS011;32542;52.832;13.816;2022-12-29T18:16:22;4.28;;;3.38;;
17253;SDS011;32542;52.832;13.816;2022-12-29T18:19:25;3.90;;;3.50;;
17253;SDS011;32542;52.832;13.816;2022-12-29T18:22:36;4.43;;;3.50;;
17253;SDS011;32542;52.832;13.816;2022-12-29T18:25:39;4.47;;;3.40;;
17253;SDS011;32542;52.832;13.816;2022-12-29T18:28:45;3.78;;;3.33;;
17253;SDS011;32542;52.832;13.816;2022-12-29T18:31:51;4.32;;;3.20;;
17253;SDS011;32542;52.832;13.816;2022-12-29T18:34:54;4.13;;;2.88;;
17253;SDS011;32542;52.832;13.816;2022-12-29T18:37:56;3.78;;;3.28;;